createdAt,value
2022-11-16T00:00:26.028Z,99815.28
2022-11-16T00:01:09.270Z,99820.94
2022-11-16T00:01:40.808Z,99821.25
2022-11-16T00:02:13.197Z,99815.59
2022-11-16T00:02:44.690Z,99818.41
2022-11-16T00:03:18.768Z,99811.41
2022-11-16T00:03:51.886Z,99815.69
2022-11-16T00:04:23.305Z,99817.78
2022-11-16T00:04:55.079Z,99811.09
2022-11-16T00:05:28.543Z,99812.94
2022-11-16T00:06:02.581Z,99803.97
2022-11-16T00:06:34.063Z,99808.66
2022-11-16T00:07:06.194Z,99810.75
2022-11-16T00:07:37.831Z,99811.09
2022-11-16T00:08:09.388Z,99806.56
2022-11-16T00:08:44.223Z,99810.28
2022-11-16T00:09:27.135Z,99805.34
2022-11-16T00:09:58.715Z,99810.91
2022-11-16T00:10:30.205Z,99806.41
2022-11-16T00:11:16.176Z,99808.81
2022-11-16T00:11:53.950Z,99803.19
2022-11-16T00:12:25.407Z,99808.19
2022-11-16T00:12:56.922Z,99806.56
2022-11-16T00:13:28.346Z,99807.69
2022-11-16T00:13:59.791Z,99804.88
2022-11-16T00:14:34.432Z,99811.31
2022-11-16T00:15:09.391Z,99813.34
2022-11-16T00:15:40.833Z,99810.28
2022-11-16T00:16:15.299Z,99808.66
2022-11-16T00:16:47.028Z,99804.47
2022-11-16T00:17:18.494Z,99803.97
2022-11-16T00:17:49.899Z,99807.22
2022-11-16T00:18:21.985Z,99806.41
2022-11-16T00:18:58.120Z,99812.69
2022-11-16T00:19:29.678Z,99810.59
2022-11-16T00:20:01.130Z,99803.97
2022-11-16T00:20:32.573Z,99806.41
2022-11-16T00:21:05.422Z,99804.78
2022-11-16T00:21:36.894Z,99801.56
2022-11-16T00:22:08.327Z,99803.34
2022-11-16T00:22:39.800Z,99806.06
2022-11-16T00:23:11.247Z,99810.44
2022-11-16T00:23:42.763Z,99807.22
2022-11-16T00:24:18.371Z,99797.53
2022-11-16T00:24:49.968Z,99808.81
2022-11-16T00:25:21.407Z,99807.13
2022-11-16T00:25:53.975Z,99806.06
2022-11-16T00:26:25.715Z,99796.00
2022-11-16T00:26:57.299Z,99798.09
2022-11-16T00:27:28.816Z,99796.63
2022-11-16T00:28:00.609Z,99802.22
2022-11-16T00:28:32.381Z,99802.84
2022-11-16T00:29:04.176Z,99792.19
2022-11-16T00:29:35.596Z,99797.03
2022-11-16T00:30:07.562Z,99796.56
2022-11-16T00:30:39.085Z,99801.56
2022-11-16T00:31:10.695Z,99794.31
2022-11-16T00:31:42.267Z,99798.66
2022-11-16T00:32:13.712Z,99797.38
2022-11-16T00:32:47.944Z,99796.56
2022-11-16T00:33:19.616Z,99800.59
2022-11-16T00:33:51.519Z,99795.75
2022-11-16T00:34:23.807Z,99798.66
2022-11-16T00:34:55.262Z,99802.13
2022-11-16T00:35:27.037Z,99799.63
2022-11-16T00:36:01.219Z,99793.66
2022-11-16T00:36:32.653Z,99793.16
2022-11-16T00:37:04.106Z,99795.25
2022-11-16T00:37:35.723Z,99790.75
2022-11-16T00:38:07.462Z,99791.16
2022-11-16T00:38:41.299Z,99793.31
2022-11-16T00:39:14.300Z,99789.28
2022-11-16T00:39:45.740Z,99798.72
2022-11-16T00:40:18.116Z,99791.22
2022-11-16T00:40:50.059Z,99793.41
2022-11-16T00:41:21.528Z,99790.25
2022-11-16T00:41:53.011Z,99790.09
2022-11-16T00:42:24.528Z,99792.44
2022-11-16T00:42:55.956Z,99787.38
2022-11-16T00:43:27.731Z,99788.97
2022-11-16T00:43:59.292Z,99791.06
2022-11-16T00:44:30.737Z,99792.19
2022-11-16T00:45:02.184Z,99791.22
2022-11-16T00:45:33.795Z,99789.53
2022-11-16T00:46:05.504Z,99782.34
2022-11-16T00:46:37.737Z,99791.72
2022-11-16T00:47:09.264Z,99788.50
2022-11-16T00:47:40.715Z,99786.38
2022-11-16T00:48:12.804Z,99785.81
2022-11-16T00:48:44.431Z,99791.72
2022-11-16T00:49:16.196Z,99789.78
2022-11-16T00:49:47.647Z,99791.72
2022-11-16T00:50:19.195Z,99793.31
2022-11-16T00:50:50.812Z,99785.41
2022-11-16T00:51:23.077Z,99785.41
2022-11-16T00:51:54.674Z,99785.91
2022-11-16T00:52:26.459Z,99782.50
2022-11-16T00:52:58.923Z,99787.34
2022-11-16T00:53:32.533Z,99787.59
2022-11-16T00:54:05.046Z,99795.59
2022-11-16T00:54:38.901Z,99790.41
2022-11-16T00:55:10.611Z,99791.88
2022-11-16T00:55:43.615Z,99789.94
2022-11-16T00:56:15.180Z,99784.94
2022-11-16T00:56:48.683Z,99791.53
2022-11-16T00:57:20.436Z,99791.22
2022-11-16T00:57:52.011Z,99784.78
2022-11-16T00:58:25.201Z,99786.38
2022-11-16T00:59:03.649Z,99787.75
2022-11-16T00:59:35.117Z,99784.28
2022-11-16T01:00:08.087Z,99787.84
2022-11-16T01:00:40.869Z,99785.09
2022-11-16T01:01:12.748Z,99782.19
2022-11-16T01:01:44.345Z,99790.25
2022-11-16T01:02:16.501Z,99791.06
2022-11-16T01:02:47.927Z,99785.41
2022-11-16T01:03:19.381Z,99784.94
2022-11-16T01:03:50.911Z,99786.53
2022-11-16T01:04:23.888Z,99781.22
2022-11-16T01:04:55.305Z,99787.50
2022-11-16T01:05:26.792Z,99790.09
2022-11-16T01:06:06.655Z,99782.44
2022-11-16T01:06:38.089Z,99777.03
2022-11-16T01:07:09.847Z,99772.34
2022-11-16T01:07:41.478Z,99784.78
2022-11-16T01:08:13.904Z,99776.78
2022-11-16T01:08:45.927Z,99775.75
2022-11-16T01:09:17.603Z,99777.28
2022-11-16T01:09:52.031Z,99773.50
2022-11-16T01:10:25.223Z,99779.44
2022-11-16T01:11:16.630Z,99773.56
2022-11-16T01:12:06.494Z,99774.13
2022-11-16T01:12:38.574Z,99776.06
2022-11-16T01:13:11.022Z,99775.19
2022-11-16T01:13:42.476Z,99776.94
2022-11-16T01:14:14.074Z,99781.06
2022-11-16T01:14:47.755Z,99775.97
2022-11-16T01:15:22.559Z,99773.47
2022-11-16T01:15:55.078Z,99774.19
2022-11-16T01:16:26.511Z,99776.06
2022-11-16T01:16:57.941Z,99775.25
2022-11-16T01:17:29.492Z,99774.69
2022-11-16T01:18:00.919Z,99773.63
2022-11-16T01:18:32.715Z,99775.97
2022-11-16T01:19:05.163Z,99770.41
2022-11-16T01:19:37.720Z,99767.34
2022-11-16T01:20:14.068Z,99765.72
2022-11-16T01:20:45.555Z,99775.31
2022-11-16T01:21:17.580Z,99774.19
2022-11-16T01:21:49.058Z,99767.81
2022-11-16T01:22:20.551Z,99765.56
2022-11-16T01:22:52.196Z,99768.31
2022-11-16T01:23:23.782Z,99772.50
2022-11-16T01:23:57.107Z,99766.06
2022-11-16T01:24:29.015Z,99766.06
2022-11-16T01:25:00.874Z,99771.72
2022-11-16T01:25:32.600Z,99770.97
2022-11-16T01:26:04.125Z,99763.78
2022-11-16T01:26:39.203Z,99762.00
2022-11-16T01:27:10.833Z,99767.75
2022-11-16T01:27:44.696Z,99765.16
2022-11-16T01:28:22.803Z,99769.94
2022-11-16T01:28:55.908Z,99761.69
2022-11-16T01:29:29.048Z,99766.47
2022-11-16T01:30:04.955Z,99770.72
2022-11-16T01:30:38.573Z,99763.06
2022-11-16T01:31:13.830Z,99763.97
2022-11-16T01:31:46.145Z,99761.88
2022-11-16T01:32:17.679Z,99760.25
2022-11-16T01:32:49.196Z,99764.59
2022-11-16T01:33:21.390Z,99759.28
2022-11-16T01:33:54.315Z,99764.59
2022-11-16T01:34:29.130Z,99758.22
2022-11-16T01:35:07.923Z,99754.59
2022-11-16T01:35:43.290Z,99754.44
2022-11-16T01:36:15.352Z,99757.59
2022-11-16T01:36:47.967Z,99756.53
2022-11-16T01:37:20.202Z,99754.59
2022-11-16T01:37:51.693Z,99761.78
2022-11-16T01:38:28.424Z,99754.44
2022-11-16T01:39:01.324Z,99754.44
2022-11-16T01:39:37.440Z,99760.50
2022-11-16T01:40:10.361Z,99754.84
2022-11-16T01:40:43.549Z,99752.25
2022-11-16T01:41:17.754Z,99758.16
2022-11-16T01:41:54.049Z,99760.25
2022-11-16T01:42:30.450Z,99753.47
2022-11-16T01:43:14.481Z,99755.06
2022-11-16T01:44:14.748Z,99752.09
2022-11-16T01:45:17.152Z,99747.50
2022-11-16T01:45:48.831Z,99749.13
2022-11-16T01:46:20.531Z,99749.84
2022-11-16T01:46:52.051Z,99749.03
2022-11-16T01:47:24.069Z,99747.81
2022-11-16T01:47:56.168Z,99750.25
2022-11-16T01:48:32.590Z,99747.56
2022-11-16T01:49:12.218Z,99752.59
2022-11-16T01:49:50.187Z,99746.44
2022-11-16T01:50:27.324Z,99747.50
2022-11-16T01:50:59.036Z,99744.66
2022-11-16T01:51:33.676Z,99748.13
2022-11-16T01:52:08.929Z,99745.97
2022-11-16T01:52:46.588Z,99737.97
2022-11-16T01:53:18.323Z,99737.91
2022-11-16T01:53:57.342Z,99747.19
2022-11-16T01:54:29.772Z,99746.69
2022-11-16T01:55:04.457Z,99745.25
2022-11-16T01:55:48.503Z,99739.03
2022-11-16T01:56:25.989Z,99738.38
2022-11-16T01:57:15.536Z,99742.09
2022-11-16T01:57:55.761Z,99746.19
2022-11-16T01:58:27.542Z,99743.22
2022-11-16T01:59:05.881Z,99737.16
2022-11-16T01:59:38.351Z,99735.25
2022-11-16T02:00:13.102Z,99737.91
2022-11-16T02:00:55.153Z,99741.19
2022-11-16T02:01:53.022Z,99730.53
2022-11-16T02:02:26.283Z,99740.88
2022-11-16T02:02:57.945Z,99735.31
2022-11-16T02:03:41.512Z,99736.34
2022-11-16T02:04:14.074Z,99735.00
2022-11-16T02:04:51.385Z,99729.34
2022-11-16T02:05:57.579Z,99735.16
2022-11-16T02:06:31.970Z,99737.34
2022-11-16T02:07:58.126Z,99732.00
2022-11-16T02:09:07.199Z,99730.88
2022-11-16T02:09:58.159Z,99734.19
2022-11-16T02:10:41.601Z,99738.72
2022-11-16T02:11:30.782Z,99727.19
2022-11-16T02:12:13.110Z,99738.31
2022-11-16T02:12:59.900Z,99732.50
2022-11-16T02:13:51.406Z,99731.22
2022-11-16T02:14:43.290Z,99741.84
2022-11-16T02:15:27.907Z,99732.97
2022-11-16T02:16:33.892Z,99731.03
2022-11-16T02:17:44.645Z,99738.47
2022-11-16T02:18:38.472Z,99733.22
2022-11-16T02:19:10.375Z,99746.94
2022-11-16T02:19:59.313Z,99753.00
2022-11-16T02:20:58.689Z,99755.50
2022-11-16T02:21:56.798Z,99742.31
2022-11-16T02:23:01.996Z,99739.34
2022-11-16T02:23:52.079Z,99743.47
2022-11-16T02:24:47.394Z,99741.84
2022-11-16T02:25:50.052Z,99748.97
2022-11-16T02:26:49.711Z,99753.16
2022-11-16T02:27:33.150Z,99752.09
2022-11-16T02:28:32.396Z,99740.72
2022-11-16T02:29:20.964Z,99746.19
2022-11-16T02:29:54.226Z,99738.47
2022-11-16T02:30:25.704Z,99728.44
2022-11-16T02:31:00.581Z,99731.53
2022-11-16T02:31:38.034Z,99746.53
2022-11-16T02:32:31.253Z,99737.66
2022-11-16T02:33:09.156Z,99743.78
2022-11-16T02:33:41.647Z,99738.47
2022-11-16T02:34:16.600Z,99738.78
2022-11-16T02:34:57.502Z,99730.88
2022-11-16T02:35:33.705Z,99723.94
2022-11-16T02:36:11.420Z,99730.06
2022-11-16T02:36:44.341Z,99725.72
2022-11-16T02:37:20.398Z,99722.97
2022-11-16T02:37:58.551Z,99722.66
2022-11-16T02:38:33.543Z,99725.94
2022-11-16T02:39:09.827Z,99727.19
2022-11-16T02:39:41.902Z,99720.56
2022-11-16T02:40:15.639Z,99730.22
2022-11-16T02:40:50.724Z,99720.56
2022-11-16T02:41:28.917Z,99722.00
2022-11-16T02:42:01.899Z,99724.41
2022-11-16T02:42:44.948Z,99727.81
2022-11-16T02:43:26.370Z,99720.88
2022-11-16T02:44:07.232Z,99721.44
2022-11-16T02:44:43.948Z,99724.16
2022-11-16T02:45:20.446Z,99716.34
2022-11-16T02:45:55.512Z,99721.69
2022-11-16T02:46:29.539Z,99727.25
2022-11-16T02:47:05.082Z,99726.03
2022-11-16T02:47:37.926Z,99725.88
2022-11-16T02:48:14.393Z,99716.09
2022-11-16T02:48:49.923Z,99719.41
2022-11-16T02:49:23.693Z,99724.66
2022-11-16T02:49:58.499Z,99719.09
2022-11-16T02:50:31.054Z,99725.72
2022-11-16T02:51:03.613Z,99717.22
2022-11-16T02:51:36.528Z,99717.72
2022-11-16T02:52:09.963Z,99714.25
2022-11-16T02:52:41.542Z,99717.16
2022-11-16T02:53:15.347Z,99718.94
2022-11-16T02:54:20.443Z,99718.22
2022-11-16T02:54:55.683Z,99717.16
2022-11-16T02:55:28.829Z,99707.63
2022-11-16T02:56:00.817Z,99709.72
2022-11-16T02:56:42.925Z,99712.31
2022-11-16T02:57:42.300Z,99711.34
2022-11-16T02:58:24.796Z,99713.44
2022-11-16T02:58:58.003Z,99704.72
2022-11-16T02:59:43.296Z,99703.28
2022-11-16T03:00:25.752Z,99699.66
2022-11-16T03:01:05.309Z,99696.91
2022-11-16T03:01:41.193Z,99698.03
2022-11-16T03:02:34.639Z,99696.91
2022-11-16T03:03:13.220Z,99693.69
2022-11-16T03:03:58.906Z,99692.63
2022-11-16T03:04:35.926Z,99696.78
2022-11-16T03:05:08.671Z,99698.44
2022-11-16T03:06:17.546Z,99698.44
2022-11-16T03:06:50.308Z,99701.53
2022-11-16T03:07:27.113Z,99701.53
2022-11-16T03:08:14.688Z,99710.09
2022-11-16T03:09:02.441Z,99710.09
2022-11-16T03:09:37.042Z,99702.91
2022-11-16T03:10:09.621Z,99705.06
2022-11-16T03:11:00.496Z,99711.13
2022-11-16T03:11:53.248Z,99706.38
2022-11-16T03:12:29.745Z,99707.97
2022-11-16T03:13:02.393Z,99709.97
2022-11-16T03:13:35.899Z,99701.75
2022-11-16T03:14:10.145Z,99710.63
2022-11-16T03:14:52.336Z,99707.56
2022-11-16T03:15:24.162Z,99696.84
2022-11-16T03:15:56.445Z,99697.88
2022-11-16T03:16:43.903Z,99713.13
2022-11-16T03:17:26.340Z,99707.00
2022-11-16T03:17:58.488Z,99700.25
2022-11-16T03:18:30.089Z,99696.78
2022-11-16T03:19:08.991Z,99702.78
2022-11-16T03:19:57.846Z,99695.97
2022-11-16T03:20:32.975Z,99699.75
2022-11-16T03:21:27.158Z,99699.44
2022-11-16T03:22:07.864Z,99690.47
2022-11-16T03:22:54.351Z,99691.50
2022-11-16T03:23:25.809Z,99692.56
2022-11-16T03:23:57.617Z,99688.28
2022-11-16T03:24:29.220Z,99689.91
2022-11-16T03:25:00.731Z,99690.16
2022-11-16T03:25:42.132Z,99685.38
2022-11-16T03:26:17.023Z,99677.47
2022-11-16T03:27:12.540Z,99686.69
2022-11-16T03:28:08.497Z,99682.47
2022-11-16T03:29:00.723Z,99685.06
2022-11-16T03:29:47.259Z,99686.13
2022-11-16T03:30:23.991Z,99687.31
2022-11-16T03:31:01.598Z,99688.22
2022-11-16T03:31:41.103Z,99687.16
2022-11-16T03:32:19.029Z,99688.44
2022-11-16T03:32:53.331Z,99696.09
2022-11-16T03:33:31.001Z,99689.91
2022-11-16T03:34:07.305Z,99693.13
2022-11-16T03:34:41.662Z,99690.53
2022-11-16T03:35:21.068Z,99694.59
2022-11-16T03:36:16.322Z,99696.09
2022-11-16T03:36:50.025Z,99697.81
2022-11-16T03:37:24.385Z,99691.09
2022-11-16T03:37:57.918Z,99692.50
2022-11-16T03:38:31.637Z,99691.34
2022-11-16T03:39:08.567Z,99691.84
2022-11-16T03:39:42.053Z,99690.53
2022-11-16T03:40:14.100Z,99695.28
2022-11-16T03:40:47.263Z,99698.75
2022-11-16T03:41:20.607Z,99696.22
2022-11-16T03:41:53.498Z,99695.06
2022-11-16T03:42:26.603Z,99690.72
2022-11-16T03:42:59.670Z,99691.03
2022-11-16T03:43:32.249Z,99685.56
2022-11-16T03:44:05.892Z,99689.16
2022-11-16T03:44:38.802Z,99687.97
2022-11-16T03:45:13.432Z,99690.72
2022-11-16T03:45:46.892Z,99691.34
2022-11-16T03:46:19.444Z,99690.53
2022-11-16T03:46:50.940Z,99698.94
2022-11-16T03:47:22.401Z,99687.63
2022-11-16T03:47:53.827Z,99691.44
2022-11-16T03:48:26.087Z,99692.00
2022-11-16T03:48:59.122Z,99694.09
2022-11-16T03:49:34.112Z,99687.25
2022-11-16T03:50:07.011Z,99690.41
2022-11-16T03:50:39.025Z,99680.25
2022-11-16T03:51:11.185Z,99684.09
2022-11-16T03:51:44.242Z,99686.25
2022-11-16T03:52:16.954Z,99679.75
2022-11-16T03:52:48.787Z,99685.56
2022-11-16T03:53:20.355Z,99682.31
2022-11-16T03:53:51.884Z,99677.09
2022-11-16T03:54:23.977Z,99681.34
2022-11-16T03:54:55.429Z,99680.44
2022-11-16T03:55:29.041Z,99670.22
2022-11-16T03:56:00.778Z,99676.34
2022-11-16T03:56:32.947Z,99682.91
2022-11-16T03:57:04.405Z,99679.09
2022-11-16T03:57:36.087Z,99676.84
2022-11-16T03:58:07.533Z,99678.13
2022-11-16T03:58:38.992Z,99669.66
2022-11-16T03:59:10.681Z,99676.34
2022-11-16T03:59:43.330Z,99676.53
2022-11-16T04:00:15.821Z,99671.44
2022-11-16T04:00:48.350Z,99667.81
2022-11-16T04:01:19.918Z,99675.53
2022-11-16T04:01:52.607Z,99671.34
2022-11-16T04:02:24.252Z,99674.25
2022-11-16T04:02:58.306Z,99669.09
2022-11-16T04:03:29.836Z,99670.22
2022-11-16T04:04:02.244Z,99663.53
2022-11-16T04:05:09.180Z,99670.53
2022-11-16T04:05:59.780Z,99672.63
2022-11-16T04:06:49.936Z,99670.84
2022-11-16T04:07:40.139Z,99668.13
2022-11-16T04:08:34.800Z,99665.38
2022-11-16T04:09:25.210Z,99668.59
2022-11-16T04:10:15.233Z,99662.22
2022-11-16T04:11:05.747Z,99662.16
2022-11-16T04:11:56.761Z,99665.38
2022-11-16T04:12:47.320Z,99668.84
2022-11-16T04:13:44.362Z,99663.28
2022-11-16T04:14:39.123Z,99669.16
2022-11-16T04:15:31.158Z,99670.22
2022-11-16T04:16:21.589Z,99664.09
2022-11-16T04:17:11.702Z,99658.28
2022-11-16T04:18:01.819Z,99665.94
2022-11-16T04:18:51.845Z,99655.84
2022-11-16T04:19:41.976Z,99666.75
2022-11-16T04:20:33.962Z,99664.34
2022-11-16T04:21:27.116Z,99657.47
2022-11-16T04:22:21.605Z,99662.78
2022-11-16T04:23:15.483Z,99659.00
2022-11-16T04:24:06.305Z,99668.59
2022-11-16T04:24:40.254Z,99667.00
2022-11-16T04:25:15.167Z,99668.84
2022-11-16T04:25:47.831Z,99674.91
2022-11-16T04:26:41.672Z,99670.72
2022-11-16T04:27:32.910Z,99668.59
2022-11-16T04:28:14.206Z,99671.59
2022-11-16T04:28:50.023Z,99665.88
2022-11-16T04:29:21.845Z,99669.09
2022-11-16T04:29:54.456Z,99671.97
2022-11-16T04:30:26.303Z,99673.44
2022-11-16T04:31:18.362Z,99669.72
2022-11-16T04:32:13.105Z,99668.84
2022-11-16T04:33:03.193Z,99672.78
2022-11-16T04:33:53.774Z,99674.56
2022-11-16T04:34:43.839Z,99669.72
2022-11-16T04:35:47.501Z,99669.84
2022-11-16T04:36:38.286Z,99674.56
2022-11-16T04:37:32.798Z,99676.97
2022-11-16T04:38:04.465Z,99671.97
2022-11-16T04:38:38.854Z,99672.94
2022-11-16T04:39:10.356Z,99676.09
2022-11-16T04:39:41.924Z,99679.06
2022-11-16T04:40:18.497Z,99671.91
2022-11-16T04:40:50.021Z,99675.06
2022-11-16T04:41:45.118Z,99676.97
2022-11-16T04:42:19.951Z,99676.97
2022-11-16T04:42:55.961Z,99670.34
2022-11-16T04:43:27.403Z,99673.09
2022-11-16T04:43:59.011Z,99668.75
2022-11-16T04:44:50.526Z,99674.56
2022-11-16T04:45:42.068Z,99670.84
2022-11-16T04:46:32.635Z,99676.66
2022-11-16T04:47:06.974Z,99674.75
2022-11-16T04:47:39.220Z,99678.84
2022-11-16T04:48:12.225Z,99672.69
2022-11-16T04:48:44.391Z,99678.59
2022-11-16T04:49:15.819Z,99677.47
2022-11-16T04:49:47.973Z,99678.84
2022-11-16T04:50:20.089Z,99686.81
2022-11-16T04:50:53.275Z,99679.56
2022-11-16T04:51:24.752Z,99685.69
2022-11-16T04:51:56.367Z,99691.66
2022-11-16T04:52:27.866Z,99693.75
2022-11-16T04:53:00.865Z,99694.06
2022-11-16T04:53:33.416Z,99687.94
2022-11-16T04:54:12.739Z,99687.13
2022-11-16T04:54:44.320Z,99688.75
2022-11-16T04:55:18.016Z,99692.94
2022-11-16T04:55:51.112Z,99689.81
2022-11-16T04:56:24.678Z,99678.97
2022-11-16T04:56:56.144Z,99683.66
2022-11-16T04:57:28.636Z,99688.75
2022-11-16T04:58:01.416Z,99693.91
2022-11-16T04:58:33.219Z,99693.91
2022-11-16T04:59:05.269Z,99691.31
2022-11-16T04:59:36.716Z,99694.38
2022-11-16T05:00:09.311Z,99692.22
2022-11-16T05:00:42.313Z,99696.97
2022-11-16T05:01:14.874Z,99690.03
2022-11-16T05:02:06.051Z,99693.91
2022-11-16T05:02:37.511Z,99690.84
2022-11-16T05:03:08.953Z,99686.81
2022-11-16T05:03:40.447Z,99692.13
2022-11-16T05:04:12.039Z,99692.28
2022-11-16T05:04:44.268Z,99680.19
2022-11-16T05:05:16.769Z,99689.53
2022-11-16T05:05:50.229Z,99699.56
2022-11-16T05:06:21.878Z,99700.03
2022-11-16T05:06:53.807Z,99699.97
2022-11-16T05:07:26.161Z,99706.03
2022-11-16T05:08:05.125Z,99708.94
2022-11-16T05:08:37.675Z,99702.25
2022-11-16T05:09:09.903Z,99705.38
2022-11-16T05:09:43.579Z,99700.38
2022-11-16T05:10:17.125Z,99707.00
2022-11-16T05:10:51.367Z,99708.13
2022-11-16T05:11:23.766Z,99703.28
2022-11-16T05:11:55.583Z,99696.66
2022-11-16T05:12:27.982Z,99697.16
2022-11-16T05:13:03.058Z,99696.91
2022-11-16T05:13:34.486Z,99700.06
2022-11-16T05:14:08.730Z,99698.44
2022-11-16T05:14:41.722Z,99695.78
2022-11-16T05:15:13.223Z,99700.69
2022-11-16T05:15:47.728Z,99695.84
2022-11-16T05:16:19.266Z,99696.19
2022-11-16T05:16:50.924Z,99691.84
2022-11-16T05:17:23.171Z,99695.72
2022-11-16T05:17:55.718Z,99701.03
2022-11-16T05:18:29.626Z,99694.75
2022-11-16T05:19:19.923Z,99701.03
2022-11-16T05:20:10.243Z,99708.47
2022-11-16T05:21:01.752Z,99711.38
2022-11-16T05:21:40.940Z,99705.00
2022-11-16T05:22:13.695Z,99701.84
2022-11-16T05:22:45.227Z,99699.44
2022-11-16T05:23:35.220Z,99703.16
2022-11-16T05:24:31.357Z,99701.34
2022-11-16T05:25:03.980Z,99712.81
2022-11-16T05:25:37.059Z,99709.28
2022-11-16T05:26:11.453Z,99709.53
2022-11-16T05:26:43.223Z,99715.06
2022-11-16T05:27:16.443Z,99712.63
2022-11-16T05:27:48.190Z,99723.28
2022-11-16T05:28:20.280Z,99714.50
2022-11-16T05:28:51.890Z,99720.06
2022-11-16T05:29:23.338Z,99712.63
2022-11-16T05:29:55.334Z,99715.31
2022-11-16T05:30:29.628Z,99716.69
2022-11-16T05:31:03.295Z,99716.34
2022-11-16T05:31:40.311Z,99717.97
2022-11-16T05:32:13.396Z,99716.91
2022-11-16T05:32:44.939Z,99713.22
2022-11-16T05:33:18.673Z,99715.31
2022-11-16T05:33:50.222Z,99717.41
2022-11-16T05:34:23.348Z,99707.81
2022-11-16T05:34:54.796Z,99715.78
2022-11-16T05:35:27.504Z,99717.63
2022-11-16T05:35:59.037Z,99718.44
2022-11-16T05:36:31.348Z,99714.41
2022-11-16T05:37:03.187Z,99715.22
2022-11-16T05:37:35.199Z,99722.16
2022-11-16T05:38:06.948Z,99724.25
2022-11-16T05:38:43.077Z,99721.13
2022-11-16T05:39:14.750Z,99725.38
2022-11-16T05:39:49.744Z,99727.97
2022-11-16T05:40:21.266Z,99722.66
2022-11-16T05:41:01.009Z,99731.19
2022-11-16T05:41:32.690Z,99724.50
2022-11-16T05:42:04.848Z,99727.00
2022-11-16T05:42:36.398Z,99728.78
2022-11-16T05:43:07.947Z,99731.44
2022-11-16T05:43:44.527Z,99729.03
2022-11-16T05:44:23.498Z,99736.50
2022-11-16T05:44:55.243Z,99723.53
2022-11-16T05:45:26.727Z,99729.59
2022-11-16T05:45:58.320Z,99729.81
2022-11-16T05:46:29.757Z,99726.13
2022-11-16T05:47:04.056Z,99727.97
2022-11-16T05:47:35.809Z,99729.03
2022-11-16T05:48:07.896Z,99730.94
2022-11-16T05:48:39.459Z,99723.44
2022-11-16T05:49:12.026Z,99725.88
2022-11-16T05:49:43.496Z,99721.84
2022-11-16T05:50:15.391Z,99726.34
2022-11-16T05:50:50.948Z,99727.16
2022-11-16T05:51:29.136Z,99737.31
2022-11-16T05:52:00.836Z,99732.50
2022-11-16T05:52:33.512Z,99732.31
2022-11-16T05:53:09.823Z,99732.25
2022-11-16T05:53:41.430Z,99735.38
2022-11-16T05:54:18.801Z,99733.28
2022-11-16T05:54:50.402Z,99735.38
2022-11-16T05:55:22.023Z,99736.19
2022-11-16T05:55:53.762Z,99737.50
2022-11-16T05:56:26.089Z,99737.50
2022-11-16T05:56:59.233Z,99742.25
2022-11-16T05:57:30.692Z,99739.59
2022-11-16T05:58:02.138Z,99747.56
2022-11-16T05:58:33.905Z,99750.47
2022-11-16T05:59:05.927Z,99750.72
2022-11-16T05:59:37.604Z,99755.22
2022-11-16T06:00:10.312Z,99767.72
2022-11-16T06:00:51.154Z,99762.41
2022-11-16T06:01:24.996Z,99751.16
2022-11-16T06:01:56.632Z,99760.44
2022-11-16T06:02:28.110Z,99754.75
2022-11-16T06:02:59.909Z,99748.31
2022-11-16T06:03:36.418Z,99761.84
2022-11-16T06:04:08.598Z,99755.16
2022-11-16T06:04:40.076Z,99765.31
2022-11-16T06:05:12.580Z,99760.00
2022-11-16T06:05:44.189Z,99754.19
2022-11-16T06:06:20.063Z,99754.59
2022-11-16T06:06:52.622Z,99759.84
2022-11-16T06:07:24.433Z,99755.81
2022-11-16T06:07:55.957Z,99756.28
2022-11-16T06:08:28.703Z,99753.38
2022-11-16T06:09:02.909Z,99755.31
2022-11-16T06:09:35.724Z,99756.94
2022-11-16T06:10:16.929Z,99764.03
2022-11-16T06:10:51.001Z,99765.63
2022-11-16T06:11:23.143Z,99769.34
2022-11-16T06:11:54.650Z,99768.78
2022-11-16T06:12:26.170Z,99769.25
2022-11-16T06:12:58.421Z,99770.28
2022-11-16T06:13:30.929Z,99769.69
2022-11-16T06:14:04.768Z,99764.84
2022-11-16T06:14:37.030Z,99769.94
2022-11-16T06:15:09.879Z,99768.69
2022-11-16T06:15:41.635Z,99769.28
2022-11-16T06:16:14.412Z,99769.50
2022-11-16T06:16:45.847Z,99779.09
2022-11-16T06:17:17.339Z,99770.09
2022-11-16T06:17:49.827Z,99771.69
2022-11-16T06:18:21.440Z,99778.88
2022-11-16T06:18:54.051Z,99777.50
2022-11-16T06:19:31.070Z,99780.38
2022-11-16T06:20:04.189Z,99775.88
2022-11-16T06:20:38.780Z,99775.31
2022-11-16T06:21:11.646Z,99779.59
2022-11-16T06:21:43.164Z,99768.47
2022-11-16T06:22:20.847Z,99775.88
2022-11-16T06:22:52.871Z,99775.56
2022-11-16T06:23:24.519Z,99775.56
2022-11-16T06:23:57.434Z,99774.41
2022-11-16T06:24:28.948Z,99783.75
2022-11-16T06:25:00.470Z,99772.66
2022-11-16T06:25:32.485Z,99778.91
2022-11-16T06:26:05.098Z,99780.06
2022-11-16T06:26:37.153Z,99780.63
2022-11-16T06:27:08.714Z,99783.75
2022-11-16T06:27:40.606Z,99787.94
2022-11-16T06:28:13.769Z,99777.31
2022-11-16T06:28:45.205Z,99778.91
2022-11-16T06:29:17.324Z,99781.00
2022-11-16T06:29:49.503Z,99777.78
2022-11-16T06:30:20.957Z,99774.94
2022-11-16T06:30:52.453Z,99767.25
2022-11-16T06:31:23.973Z,99778.13
2022-11-16T06:31:55.387Z,99781.59
2022-11-16T06:32:27.353Z,99778.59
2022-11-16T06:32:59.167Z,99776.50
2022-11-16T06:33:33.611Z,99781.47
2022-11-16T06:34:08.044Z,99778.81
2022-11-16T06:34:39.532Z,99779.88
2022-11-16T06:35:11.101Z,99779.88
2022-11-16T06:35:43.663Z,99779.88
2022-11-16T06:36:15.284Z,99785.63
2022-11-16T06:36:47.143Z,99780.31
2022-11-16T06:37:18.891Z,99784.00
2022-11-16T06:37:50.346Z,99786.09
2022-11-16T06:38:23.326Z,99779.41
2022-11-16T06:39:00.310Z,99782.88
2022-11-16T06:39:33.479Z,99790.63
2022-11-16T06:40:05.672Z,99779.66
2022-11-16T06:40:40.984Z,99780.59
2022-11-16T06:41:12.473Z,99783.59
2022-11-16T06:41:48.629Z,99781.72
2022-11-16T06:42:20.131Z,99777.22
2022-11-16T06:42:51.777Z,99777.13
2022-11-16T06:43:24.536Z,99779.56
2022-11-16T06:43:56.075Z,99780.59
2022-11-16T06:44:33.231Z,99783.72
2022-11-16T06:45:07.940Z,99780.50
2022-11-16T06:45:44.241Z,99780.03
2022-11-16T06:46:16.052Z,99781.63
2022-11-16T06:46:47.481Z,99784.28
2022-11-16T06:47:18.912Z,99792.38
2022-11-16T06:47:50.395Z,99791.22
2022-11-16T06:48:22.414Z,99785.91
2022-11-16T06:48:53.871Z,99792.03
2022-11-16T06:49:25.396Z,99792.50
2022-11-16T06:49:59.202Z,99794.94
2022-11-16T06:50:30.652Z,99793.53
2022-11-16T06:51:02.521Z,99794.94
2022-11-16T06:51:34.271Z,99785.56
2022-11-16T06:52:05.828Z,99795.63
2022-11-16T06:52:37.524Z,99787.66
2022-11-16T06:53:09.034Z,99792.16
2022-11-16T06:53:40.529Z,99789.75
2022-11-16T06:54:12.474Z,99792.28
2022-11-16T06:54:43.930Z,99791.56
2022-11-16T06:55:16.572Z,99792.84
2022-11-16T06:55:48.414Z,99793.41
2022-11-16T06:56:20.149Z,99791.22
2022-11-16T06:56:56.663Z,99794.34
2022-11-16T06:57:28.142Z,99797.00
2022-11-16T06:58:00.992Z,99795.41
2022-11-16T06:58:34.264Z,99791.22
2022-11-16T06:59:06.015Z,99798.06
2022-11-16T06:59:37.484Z,99800.13
2022-11-16T07:00:11.075Z,99800.59
2022-11-16T07:00:42.839Z,99793.44
2022-11-16T07:01:15.785Z,99795.53
2022-11-16T07:01:49.416Z,99793.53
2022-11-16T07:02:22.876Z,99801.06
2022-11-16T07:02:54.602Z,99798.41
2022-11-16T07:03:27.114Z,99800.03